sensor_id;sensor_type;location;lat;lon;timestamp;P1;durP1;ratioP1;P2;durP2;ratioP2
66607;SDS011;53462;39.616;8.824;2022-12-07T00:01:13;12.23;;;5.75;;
66607;SDS011;53462;39.616;8.824;2022-12-07T00:03:40;9.52;;;5.90;;
66607;SDS011;53462;39.616;8.824;2022-12-07T00:06:08;16.25;;;6.03;;
66607;SDS011;53462;39.616;8.824;2022-12-07T00:08:36;13.63;;;6.47;;
66607;SDS011;53462;39.616;8.824;2022-12-07T00:11:06;13.55;;;6.68;;
66607;SDS011;53462;39.616;8.824;2022-12-07T00:13:34;12.50;;;6.43;;
66607;SDS011;53462;39.616;8.824;2022-12-07T00:16:01;13.35;;;6.50;;
66607;SDS011;53462;39.616;8.824;2022-12-07T00:18:28;10.23;;;5.38;;
66607;SDS011;53462;39.616;8.824;2022-12-07T00:21:01;10.55;;;5.43;;
66607;SDS011;53462;39.616;8.824;2022-12-07T00:23:47;9.57;;;4.90;;
66607;SDS011;53462;39.616;8.824;2022-12-07T00:28:44;6.75;;;3.45;;
66607;SDS011;53462;39.616;8.824;2022-12-07T00:31:14;6.70;;;3.00;;
66607;SDS011;53462;39.616;8.824;2022-12-07T00:33:41;5.75;;;2.65;;
66607;SDS011;53462;39.616;8.824;2022-12-07T00:36:09;7.25;;;3.00;;
66607;SDS011;53462;39.616;8.824;2022-12-07T00:38:37;9.68;;;2.63;;
66607;SDS011;53462;39.616;8.824;2022-12-07T00:41:05;7.82;;;3.00;;
66607;SDS011;53462;39.616;8.824;2022-12-07T00:43:42;7.40;;;2.97;;
66607;SDS011;53462;39.616;8.824;2022-12-07T00:46:08;6.55;;;3.22;;
66607;SDS011;53462;39.616;8.824;2022-12-07T00:48:35;8.85;;;2.85;;
66607;SDS011;53462;39.616;8.824;2022-12-07T00:51:02;5.32;;;2.70;;
66607;SDS011;53462;39.616;8.824;2022-12-07T00:53:28;6.20;;;2.63;;
66607;SDS011;53462;39.616;8.824;2022-12-07T00:55:55;3.50;;;2.28;;
66607;SDS011;53462;39.616;8.824;2022-12-07T00:58:21;5.00;;;2.38;;
66607;SDS011;53462;39.616;8.824;2022-12-07T01:00:48;9.05;;;2.47;;
66607;SDS011;53462;39.616;8.824;2022-12-07T01:03:14;5.53;;;2.35;;
66607;SDS011;53462;39.616;8.824;2022-12-07T01:05:48;5.40;;;2.17;;
66607;SDS011;53462;39.616;8.824;2022-12-07T01:08:18;7.78;;;2.75;;
66607;SDS011;53462;39.616;8.824;2022-12-07T01:10:45;7.45;;;2.53;;
66607;SDS011;53462;39.616;8.824;2022-12-07T01:13:11;4.53;;;2.42;;
66607;SDS011;53462;39.616;8.824;2022-12-07T01:15:40;11.05;;;2.95;;
66607;SDS011;53462;39.616;8.824;2022-12-07T01:18:08;5.57;;;2.90;;
66607;SDS011;53462;39.616;8.824;2022-12-07T01:20:34;7.43;;;2.40;;
66607;SDS011;53462;39.616;8.824;2022-12-07T01:23:00;4.78;;;2.72;;
66607;SDS011;53462;39.616;8.824;2022-12-07T01:25:26;7.68;;;2.70;;
66607;SDS011;53462;39.616;8.824;2022-12-07T01:27:52;3.85;;;2.40;;
66607;SDS011;53462;39.616;8.824;2022-12-07T01:30:18;9.40;;;2.80;;
66607;SDS011;53462;39.616;8.824;2022-12-07T01:32:44;6.72;;;2.83;;
66607;SDS011;53462;39.616;8.824;2022-12-07T01:35:10;5.95;;;2.75;;
66607;SDS011;53462;39.616;8.824;2022-12-07T01:37:37;4.88;;;2.60;;
66607;SDS011;53462;39.616;8.824;2022-12-07T01:40:04;6.25;;;2.95;;
66607;SDS011;53462;39.616;8.824;2022-12-07T01:42:31;6.50;;;2.70;;
66607;SDS011;53462;39.616;8.824;2022-12-07T01:48:02;6.80;;;2.95;;
66607;SDS011;53462;39.616;8.824;2022-12-07T01:50:30;8.70;;;3.65;;
66607;SDS011;53462;39.616;8.824;2022-12-07T01:52:57;5.60;;;2.95;;
66607;SDS011;53462;39.616;8.824;2022-12-07T01:55:25;7.38;;;3.22;;
66607;SDS011;53462;39.616;8.824;2022-12-07T01:57:52;5.32;;;2.67;;
66607;SDS011;53462;39.616;8.824;2022-12-07T02:00:19;6.75;;;2.55;;
66607;SDS011;53462;39.616;8.824;2022-12-07T02:05:29;7.22;;;3.28;;
66607;SDS011;53462;39.616;8.824;2022-12-07T02:07:56;6.53;;;3.03;;
66607;SDS011;53462;39.616;8.824;2022-12-07T02:10:27;7.40;;;3.40;;
66607;SDS011;53462;39.616;8.824;2022-12-07T02:12:58;7.65;;;3.80;;
66607;SDS011;53462;39.616;8.824;2022-12-07T02:15:41;8.23;;;3.60;;
66607;SDS011;53462;39.616;8.824;2022-12-07T02:23:47;6.32;;;3.35;;
66607;SDS011;53462;39.616;8.824;2022-12-07T02:31:50;9.02;;;4.07;;
66607;SDS011;53462;39.616;8.824;2022-12-07T02:34:43;7.35;;;3.65;;
66607;SDS011;53462;39.616;8.824;2022-12-07T02:37:25;5.30;;;3.50;;
66607;SDS011;53462;39.616;8.824;2022-12-07T02:42:47;4.80;;;3.03;;
66607;SDS011;53462;39.616;8.824;2022-12-07T02:45:17;11.60;;;3.67;;
66607;SDS011;53462;39.616;8.824;2022-12-07T02:47:47;9.98;;;4.03;;
66607;SDS011;53462;39.616;8.824;2022-12-07T02:50:17;9.43;;;4.70;;
66607;SDS011;53462;39.616;8.824;2022-12-07T02:52:47;9.35;;;3.92;;
66607;SDS011;53462;39.616;8.824;2022-12-07T02:55:13;6.28;;;3.70;;
66607;SDS011;53462;39.616;8.824;2022-12-07T02:57:54;5.68;;;3.33;;
66607;SDS011;53462;39.616;8.824;2022-12-07T03:00:27;6.22;;;3.47;;
66607;SDS011;53462;39.616;8.824;2022-12-07T03:03:00;9.45;;;3.85;;
66607;SDS011;53462;39.616;8.824;2022-12-07T03:11:02;6.90;;;3.80;;
66607;SDS011;53462;39.616;8.824;2022-12-07T03:16:26;11.82;;;4.43;;
66607;SDS011;53462;39.616;8.824;2022-12-07T03:18:56;7.85;;;4.30;;
66607;SDS011;53462;39.616;8.824;2022-12-07T03:21:27;8.50;;;3.70;;
66607;SDS011;53462;39.616;8.824;2022-12-07T03:23:58;9.10;;;4.38;;
66607;SDS011;53462;39.616;8.824;2022-12-07T03:26:31;7.55;;;3.50;;
66607;SDS011;53462;39.616;8.824;2022-12-07T03:29:05;9.27;;;4.35;;
66607;SDS011;53462;39.616;8.824;2022-12-07T03:31:39;7.63;;;3.90;;
66607;SDS011;53462;39.616;8.824;2022-12-07T03:36:49;9.45;;;3.92;;
66607;SDS011;53462;39.616;8.824;2022-12-07T03:41:51;8.55;;;4.65;;
66607;SDS011;53462;39.616;8.824;2022-12-07T03:44:18;14.70;;;4.72;;
66607;SDS011;53462;39.616;8.824;2022-12-07T03:59:53;12.05;;;4.25;;
66607;SDS011;53462;39.616;8.824;2022-12-07T04:02:21;7.78;;;3.88;;
66607;SDS011;53462;39.616;8.824;2022-12-07T04:04:48;6.57;;;4.00;;
66607;SDS011;53462;39.616;8.824;2022-12-07T04:07:15;7.38;;;3.97;;
66607;SDS011;53462;39.616;8.824;2022-12-07T04:09:40;12.60;;;4.13;;
66607;SDS011;53462;39.616;8.824;2022-12-07T04:12:07;6.50;;;3.75;;
66607;SDS011;53462;39.616;8.824;2022-12-07T04:14:33;7.35;;;4.45;;
66607;SDS011;53462;39.616;8.824;2022-12-07T04:16:59;10.55;;;4.47;;
66607;SDS011;53462;39.616;8.824;2022-12-07T04:19:28;7.85;;;4.68;;
66607;SDS011;53462;39.616;8.824;2022-12-07T04:21:56;8.45;;;4.90;;
66607;SDS011;53462;39.616;8.824;2022-12-07T04:24:24;11.77;;;5.03;;
66607;SDS011;53462;39.616;8.824;2022-12-07T04:26:50;6.70;;;4.15;;
66607;SDS011;53462;39.616;8.824;2022-12-07T04:29:17;8.60;;;4.18;;
66607;SDS011;53462;39.616;8.824;2022-12-07T04:31:43;7.25;;;3.85;;
66607;SDS011;53462;39.616;8.824;2022-12-07T04:34:10;7.93;;;3.92;;
66607;SDS011;53462;39.616;8.824;2022-12-07T04:36:37;10.43;;;5.03;;
66607;SDS011;53462;39.616;8.824;2022-12-07T04:39:04;10.10;;;4.40;;
66607;SDS011;53462;39.616;8.824;2022-12-07T04:41:31;7.07;;;3.78;;
66607;SDS011;53462;39.616;8.824;2022-12-07T04:44:00;7.55;;;5.07;;
66607;SDS011;53462;39.616;8.824;2022-12-07T04:46:28;10.70;;;5.28;;
66607;SDS011;53462;39.616;8.824;2022-12-07T04:48:55;9.75;;;5.65;;
66607;SDS011;53462;39.616;8.824;2022-12-07T04:51:22;13.52;;;5.65;;
66607;SDS011;53462;39.616;8.824;2022-12-07T04:53:52;11.32;;;4.85;;
66607;SDS011;53462;39.616;8.824;2022-12-07T04:56:19;10.02;;;4.63;;
66607;SDS011;53462;39.616;8.824;2022-12-07T04:58:45;10.95;;;5.40;;
66607;SDS011;53462;39.616;8.824;2022-12-07T05:01:13;8.15;;;4.57;;
66607;SDS011;53462;39.616;8.824;2022-12-07T05:03:40;6.80;;;4.32;;
66607;SDS011;53462;39.616;8.824;2022-12-07T05:06:06;11.45;;;4.72;;
66607;SDS011;53462;39.616;8.824;2022-12-07T05:08:33;7.95;;;4.50;;
66607;SDS011;53462;39.616;8.824;2022-12-07T05:11:00;7.13;;;4.22;;
66607;SDS011;53462;39.616;8.824;2022-12-07T05:13:27;10.38;;;4.32;;
66607;SDS011;53462;39.616;8.824;2022-12-07T05:15:53;7.05;;;3.50;;
66607;SDS011;53462;39.616;8.824;2022-12-07T05:18:18;7.55;;;3.38;;
66607;SDS011;53462;39.616;8.824;2022-12-07T05:20:45;8.00;;;3.38;;
66607;SDS011;53462;39.616;8.824;2022-12-07T05:23:11;4.40;;;3.33;;
66607;SDS011;53462;39.616;8.824;2022-12-07T05:25:37;7.05;;;3.33;;
66607;SDS011;53462;39.616;8.824;2022-12-07T05:28:04;6.38;;;3.30;;
66607;SDS011;53462;39.616;8.824;2022-12-07T05:30:30;5.25;;;3.50;;
66607;SDS011;53462;39.616;8.824;2022-12-07T05:32:56;9.32;;;3.50;;
66607;SDS011;53462;39.616;8.824;2022-12-07T05:35:22;7.05;;;3.35;;
66607;SDS011;53462;39.616;8.824;2022-12-07T05:37:48;7.20;;;3.60;;
66607;SDS011;53462;39.616;8.824;2022-12-07T05:40:15;8.55;;;3.60;;
66607;SDS011;53462;39.616;8.824;2022-12-07T05:42:41;8.98;;;4.18;;
66607;SDS011;53462;39.616;8.824;2022-12-07T05:45:08;8.18;;;4.03;;
66607;SDS011;53462;39.616;8.824;2022-12-07T05:47:35;8.50;;;4.25;;
66607;SDS011;53462;39.616;8.824;2022-12-07T05:50:01;12.38;;;4.22;;
66607;SDS011;53462;39.616;8.824;2022-12-07T05:52:29;13.65;;;5.30;;
66607;SDS011;53462;39.616;8.824;2022-12-07T05:54:55;9.50;;;5.07;;
66607;SDS011;53462;39.616;8.824;2022-12-07T05:57:21;12.20;;;5.55;;
66607;SDS011;53462;39.616;8.824;2022-12-07T05:59:47;7.05;;;4.03;;
66607;SDS011;53462;39.616;8.824;2022-12-07T06:02:14;12.27;;;4.72;;
66607;SDS011;53462;39.616;8.824;2022-12-07T06:04:41;9.55;;;4.15;;
66607;SDS011;53462;39.616;8.824;2022-12-07T06:07:09;9.48;;;3.60;;
66607;SDS011;53462;39.616;8.824;2022-12-07T06:09:38;9.05;;;4.03;;
66607;SDS011;53462;39.616;8.824;2022-12-07T06:12:04;8.90;;;3.65;;
66607;SDS011;53462;39.616;8.824;2022-12-07T06:14:49;14.35;;;4.40;;
66607;SDS011;53462;39.616;8.824;2022-12-07T06:17:15;6.43;;;3.70;;
66607;SDS011;53462;39.616;8.824;2022-12-07T06:19:42;6.28;;;3.55;;
66607;SDS011;53462;39.616;8.824;2022-12-07T06:22:08;7.18;;;3.63;;
66607;SDS011;53462;39.616;8.824;2022-12-07T06:24:36;9.13;;;3.70;;
66607;SDS011;53462;39.616;8.824;2022-12-07T06:27:03;5.78;;;3.45;;
66607;SDS011;53462;39.616;8.824;2022-12-07T06:29:30;9.15;;;3.65;;
66607;SDS011;53462;39.616;8.824;2022-12-07T06:31:56;6.63;;;3.67;;
66607;SDS011;53462;39.616;8.824;2022-12-07T06:34:22;8.63;;;3.60;;
66607;SDS011;53462;39.616;8.824;2022-12-07T06:36:49;7.32;;;4.30;;
66607;SDS011;53462;39.616;8.824;2022-12-07T06:39:26;6.63;;;3.50;;
66607;SDS011;53462;39.616;8.824;2022-12-07T06:41:53;8.88;;;4.05;;
66607;SDS011;53462;39.616;8.824;2022-12-07T06:44:20;5.15;;;3.40;;
66607;SDS011;53462;39.616;8.824;2022-12-07T06:46:47;8.63;;;4.88;;
66607;SDS011;53462;39.616;8.824;2022-12-07T06:49:13;13.48;;;5.00;;
66607;SDS011;53462;39.616;8.824;2022-12-07T06:51:39;17.95;;;4.80;;
66607;SDS011;53462;39.616;8.824;2022-12-07T06:54:08;13.52;;;5.57;;
66607;SDS011;53462;39.616;8.824;2022-12-07T06:56:35;9.65;;;4.40;;
66607;SDS011;53462;39.616;8.824;2022-12-07T06:59:01;8.05;;;4.65;;
66607;SDS011;53462;39.616;8.824;2022-12-07T07:01:27;8.45;;;5.20;;
66607;SDS011;53462;39.616;8.824;2022-12-07T07:03:53;10.93;;;4.82;;
66607;SDS011;53462;39.616;8.824;2022-12-07T07:06:19;12.60;;;5.35;;
66607;SDS011;53462;39.616;8.824;2022-12-07T07:08:45;8.73;;;4.65;;
66607;SDS011;53462;39.616;8.824;2022-12-07T07:11:11;12.65;;;5.53;;
66607;SDS011;53462;39.616;8.824;2022-12-07T07:13:37;13.70;;;5.40;;
66607;SDS011;53462;39.616;8.824;2022-12-07T07:16:04;11.55;;;4.82;;
66607;SDS011;53462;39.616;8.824;2022-12-07T07:18:31;8.70;;;4.53;;
66607;SDS011;53462;39.616;8.824;2022-12-07T07:20:57;6.00;;;4.03;;
66607;SDS011;53462;39.616;8.824;2022-12-07T07:23:23;10.80;;;4.65;;
66607;SDS011;53462;39.616;8.824;2022-12-07T07:25:49;12.25;;;4.78;;
66607;SDS011;53462;39.616;8.824;2022-12-07T07:28:15;11.98;;;6.05;;
66607;SDS011;53462;39.616;8.824;2022-12-07T07:30:41;11.63;;;7.10;;
66607;SDS011;53462;39.616;8.824;2022-12-07T07:33:07;7.82;;;5.03;;
66607;SDS011;53462;39.616;8.824;2022-12-07T07:35:35;10.55;;;5.93;;
66607;SDS011;53462;39.616;8.824;2022-12-07T07:38:02;7.78;;;5.80;;
66607;SDS011;53462;39.616;8.824;2022-12-07T07:40:28;15.63;;;5.22;;
66607;SDS011;53462;39.616;8.824;2022-12-07T07:42:55;10.55;;;5.25;;
66607;SDS011;53462;39.616;8.824;2022-12-07T07:45:25;12.80;;;6.50;;
66607;SDS011;53462;39.616;8.824;2022-12-07T07:47:52;12.60;;;6.20;;
66607;SDS011;53462;39.616;8.824;2022-12-07T07:50:18;8.93;;;5.20;;
66607;SDS011;53462;39.616;8.824;2022-12-07T07:52:45;7.78;;;5.53;;
66607;SDS011;53462;39.616;8.824;2022-12-07T07:55:11;8.20;;;5.70;;
66607;SDS011;53462;39.616;8.824;2022-12-07T07:57:38;12.60;;;5.57;;
66607;SDS011;53462;39.616;8.824;2022-12-07T08:00:07;10.90;;;5.40;;
66607;SDS011;53462;39.616;8.824;2022-12-07T08:02:38;10.50;;;6.05;;
66607;SDS011;53462;39.616;8.824;2022-12-07T08:05:05;10.93;;;5.38;;
66607;SDS011;53462;39.616;8.824;2022-12-07T08:07:31;14.48;;;5.25;;
66607;SDS011;53462;39.616;8.824;2022-12-07T08:09:57;10.63;;;4.13;;
66607;SDS011;53462;39.616;8.824;2022-12-07T08:12:23;9.52;;;4.30;;
66607;SDS011;53462;39.616;8.824;2022-12-07T08:14:49;14.18;;;3.78;;
66607;SDS011;53462;39.616;8.824;2022-12-07T08:17:15;5.95;;;2.70;;
66607;SDS011;53462;39.616;8.824;2022-12-07T08:19:41;7.50;;;2.45;;
66607;SDS011;53462;39.616;8.824;2022-12-07T08:22:07;5.47;;;2.50;;
66607;SDS011;53462;39.616;8.824;2022-12-07T08:24:33;4.45;;;1.80;;
66607;SDS011;53462;39.616;8.824;2022-12-07T08:27:00;7.63;;;1.83;;
66607;SDS011;53462;39.616;8.824;2022-12-07T08:29:26;7.40;;;2.20;;
66607;SDS011;53462;39.616;8.824;2022-12-07T08:31:53;4.35;;;1.80;;
66607;SDS011;53462;39.616;8.824;2022-12-07T08:34:19;3.35;;;1.88;;
66607;SDS011;53462;39.616;8.824;2022-12-07T08:36:44;6.35;;;1.90;;
66607;SDS011;53462;39.616;8.824;2022-12-07T08:39:10;5.25;;;1.40;;
66607;SDS011;53462;39.616;8.824;2022-12-07T08:41:36;7.00;;;1.77;;
66607;SDS011;53462;39.616;8.824;2022-12-07T08:44:02;6.28;;;1.83;;
66607;SDS011;53462;39.616;8.824;2022-12-07T08:51:31;6.95;;;2.42;;
66607;SDS011;53462;39.616;8.824;2022-12-07T08:53:58;8.73;;;1.70;;
66607;SDS011;53462;39.616;8.824;2022-12-07T08:56:26;6.03;;;1.77;;
66607;SDS011;53462;39.616;8.824;2022-12-07T08:58:52;7.15;;;2.00;;
66607;SDS011;53462;39.616;8.824;2022-12-07T09:01:18;6.10;;;1.83;;
66607;SDS011;53462;39.616;8.824;2022-12-07T09:03:44;5.65;;;1.98;;
66607;SDS011;53462;39.616;8.824;2022-12-07T09:06:10;5.10;;;2.58;;
66607;SDS011;53462;39.616;8.824;2022-12-07T09:08:37;7.90;;;2.50;;
66607;SDS011;53462;39.616;8.824;2022-12-07T09:11:07;10.00;;;3.13;;
66607;SDS011;53462;39.616;8.824;2022-12-07T09:13:32;9.30;;;2.90;;
66607;SDS011;53462;39.616;8.824;2022-12-07T09:15:58;5.85;;;2.88;;
66607;SDS011;53462;39.616;8.824;2022-12-07T09:18:24;8.20;;;3.45;;
66607;SDS011;53462;39.616;8.824;2022-12-07T09:20:50;8.70;;;3.35;;
66607;SDS011;53462;39.616;8.824;2022-12-07T09:23:16;7.68;;;3.38;;
66607;SDS011;53462;39.616;8.824;2022-12-07T09:25:42;8.40;;;2.15;;
66607;SDS011;53462;39.616;8.824;2022-12-07T09:28:08;7.00;;;2.58;;
66607;SDS011;53462;39.616;8.824;2022-12-07T09:30:34;14.95;;;2.67;;
66607;SDS011;53462;39.616;8.824;2022-12-07T09:33:00;7.05;;;2.45;;
66607;SDS011;53462;39.616;8.824;2022-12-07T09:35:26;7.40;;;2.75;;
66607;SDS011;53462;39.616;8.824;2022-12-07T09:37:52;10.25;;;3.20;;
66607;SDS011;53462;39.616;8.824;2022-12-07T09:40:19;7.53;;;2.20;;
66607;SDS011;53462;39.616;8.824;2022-12-07T09:42:48;8.75;;;2.28;;
66607;SDS011;53462;39.616;8.824;2022-12-07T09:45:19;6.85;;;2.30;;
66607;SDS011;53462;39.616;8.824;2022-12-07T09:47:48;8.48;;;2.20;;
66607;SDS011;53462;39.616;8.824;2022-12-07T09:50:16;5.95;;;1.83;;
66607;SDS011;53462;39.616;8.824;2022-12-07T09:52:48;10.07;;;1.90;;
66607;SDS011;53462;39.616;8.824;2022-12-07T09:55:16;6.03;;;1.90;;
66607;SDS011;53462;39.616;8.824;2022-12-07T09:57:49;5.18;;;1.50;;
66607;SDS011;53462;39.616;8.824;2022-12-07T10:00:18;5.85;;;1.70;;
66607;SDS011;53462;39.616;8.824;2022-12-07T10:02:57;11.45;;;1.98;;
66607;SDS011;53462;39.616;8.824;2022-12-07T10:05:28;5.70;;;1.50;;
66607;SDS011;53462;39.616;8.824;2022-12-07T10:07:57;7.07;;;1.45;;
66607;SDS011;53462;39.616;8.824;2022-12-07T10:10:24;5.53;;;1.48;;
66607;SDS011;53462;39.616;8.824;2022-12-07T10:12:59;6.13;;;1.60;;
66607;SDS011;53462;39.616;8.824;2022-12-07T10:18:28;3.40;;;1.50;;
66607;SDS011;53462;39.616;8.824;2022-12-07T10:23:30;6.05;;;1.90;;
66607;SDS011;53462;39.616;8.824;2022-12-07T10:25:56;5.80;;;1.70;;
66607;SDS011;53462;39.616;8.824;2022-12-07T10:28:22;5.82;;;2.00;;
66607;SDS011;53462;39.616;8.824;2022-12-07T10:33:57;11.48;;;2.25;;
66607;SDS011;53462;39.616;8.824;2022-12-07T10:39:02;6.95;;;2.30;;
66607;SDS011;53462;39.616;8.824;2022-12-07T10:44:27;6.32;;;1.98;;
66607;SDS011;53462;39.616;8.824;2022-12-07T10:55:41;6.07;;;1.50;;
66607;SDS011;53462;39.616;8.824;2022-12-07T11:06:51;5.57;;;1.50;;
66607;SDS011;53462;39.616;8.824;2022-12-07T11:15:24;4.47;;;1.70;;
66607;SDS011;53462;39.616;8.824;2022-12-07T11:18:11;10.48;;;3.05;;
66607;SDS011;53462;39.616;8.824;2022-12-07T11:20:41;7.85;;;1.98;;
66607;SDS011;53462;39.616;8.824;2022-12-07T11:26:21;8.77;;;1.73;;
66607;SDS011;53462;39.616;8.824;2022-12-07T11:29:21;12.90;;;2.10;;
66607;SDS011;53462;39.616;8.824;2022-12-07T11:37:35;10.13;;;2.13;;
66607;SDS011;53462;39.616;8.824;2022-12-07T11:40:48;9.43;;;1.63;;
66607;SDS011;53462;39.616;8.824;2022-12-07T11:43:37;6.65;;;2.42;;
66607;SDS011;53462;39.616;8.824;2022-12-07T11:46:05;7.03;;;2.00;;
66607;SDS011;53462;39.616;8.824;2022-12-07T11:48:38;10.80;;;1.95;;
66607;SDS011;53462;39.616;8.824;2022-12-07T11:51:10;9.25;;;2.20;;
66607;SDS011;53462;39.616;8.824;2022-12-07T11:53:44;7.88;;;2.55;;
66607;SDS011;53462;39.616;8.824;2022-12-07T11:56:21;11.00;;;2.42;;
66607;SDS011;53462;39.616;8.824;2022-12-07T11:58:55;6.38;;;1.95;;
66607;SDS011;53462;39.616;8.824;2022-12-07T12:04:05;5.13;;;2.28;;
66607;SDS011;53462;39.616;8.824;2022-12-07T12:06:34;8.43;;;2.42;;
66607;SDS011;53462;39.616;8.824;2022-12-07T12:09:06;7.68;;;2.20;;
66607;SDS011;53462;39.616;8.824;2022-12-07T12:14:53;11.02;;;2.58;;
66607;SDS011;53462;39.616;8.824;2022-12-07T12:25:45;5.97;;;2.20;;
66607;SDS011;53462;39.616;8.824;2022-12-07T12:31:14;7.97;;;2.28;;
66607;SDS011;53462;39.616;8.824;2022-12-07T12:33:48;8.32;;;2.17;;
66607;SDS011;53462;39.616;8.824;2022-12-07T12:39:16;5.82;;;1.60;;
66607;SDS011;53462;39.616;8.824;2022-12-07T12:46:53;10.68;;;2.28;;
66607;SDS011;53462;39.616;8.824;2022-12-07T12:51:53;8.68;;;2.10;;
66607;SDS011;53462;39.616;8.824;2022-12-07T12:54:26;9.70;;;2.60;;
66607;SDS011;53462;39.616;8.824;2022-12-07T12:57:04;7.93;;;2.53;;
66607;SDS011;53462;39.616;8.824;2022-12-07T13:02:28;6.53;;;2.10;;
66607;SDS011;53462;39.616;8.824;2022-12-07T13:10:25;8.48;;;2.35;;
66607;SDS011;53462;39.616;8.824;2022-12-07T13:15:37;11.13;;;1.88;;
66607;SDS011;53462;39.616;8.824;2022-12-07T13:26:18;6.28;;;2.03;;
66607;SDS011;53462;39.616;8.824;2022-12-07T13:28:52;3.50;;;1.70;;
66607;SDS011;53462;39.616;8.824;2022-12-07T13:31:34;8.55;;;2.70;;
66607;SDS011;53462;39.616;8.824;2022-12-07T13:37:02;7.53;;;2.00;;
66607;SDS011;53462;39.616;8.824;2022-12-07T13:39:47;7.85;;;1.80;;
66607;SDS011;53462;39.616;8.824;2022-12-07T13:44:51;7.55;;;2.55;;
66607;SDS011;53462;39.616;8.824;2022-12-07T13:53:00;3.22;;;1.80;;
66607;SDS011;53462;39.616;8.824;2022-12-07T13:55:27;4.47;;;1.88;;
66607;SDS011;53462;39.616;8.824;2022-12-07T13:57:54;3.60;;;1.90;;
66607;SDS011;53462;39.616;8.824;2022-12-07T14:00:21;4.28;;;1.80;;
66607;SDS011;53462;39.616;8.824;2022-12-07T14:03:25;5.70;;;2.97;;
66607;SDS011;53462;39.616;8.824;2022-12-07T14:08:40;4.85;;;1.75;;
66607;SDS011;53462;39.616;8.824;2022-12-07T14:11:12;4.20;;;1.67;;
66607;SDS011;53462;39.616;8.824;2022-12-07T14:13:55;5.47;;;1.50;;
66607;SDS011;53462;39.616;8.824;2022-12-07T14:18:51;4.18;;;1.50;;
66607;SDS011;53462;39.616;8.824;2022-12-07T14:21:18;4.82;;;1.83;;
66607;SDS011;53462;39.616;8.824;2022-12-07T14:24:02;4.57;;;1.80;;
66607;SDS011;53462;39.616;8.824;2022-12-07T14:26:42;6.15;;;1.95;;
66607;SDS011;53462;39.616;8.824;2022-12-07T14:29:19;5.03;;;1.75;;
66607;SDS011;53462;39.616;8.824;2022-12-07T14:31:52;8.37;;;2.40;;
66607;SDS011;53462;39.616;8.824;2022-12-07T14:34:22;5.95;;;2.10;;
66607;SDS011;53462;39.616;8.824;2022-12-07T14:36:49;6.78;;;1.90;;
66607;SDS011;53462;39.616;8.824;2022-12-07T14:39:15;6.07;;;1.70;;
66607;SDS011;53462;39.616;8.824;2022-12-07T14:41:41;4.20;;;1.70;;
66607;SDS011;53462;39.616;8.824;2022-12-07T14:44:16;8.40;;;1.88;;
66607;SDS011;53462;39.616;8.824;2022-12-07T14:46:43;4.93;;;1.70;;
66607;SDS011;53462;39.616;8.824;2022-12-07T14:49:09;4.90;;;2.30;;
66607;SDS011;53462;39.616;8.824;2022-12-07T14:51:36;7.32;;;2.30;;
66607;SDS011;53462;39.616;8.824;2022-12-07T14:54:06;3.80;;;1.73;;
66607;SDS011;53462;39.616;8.824;2022-12-07T14:56:40;3.78;;;1.70;;
66607;SDS011;53462;39.616;8.824;2022-12-07T14:59:07;6.35;;;1.95;;
66607;SDS011;53462;39.616;8.824;2022-12-07T15:01:33;6.55;;;1.60;;
66607;SDS011;53462;39.616;8.824;2022-12-07T15:03:59;5.70;;;1.88;;
66607;SDS011;53462;39.616;8.824;2022-12-07T15:06:25;7.35;;;3.13;;
66607;SDS011;53462;39.616;8.824;2022-12-07T15:08:51;5.57;;;2.42;;
66607;SDS011;53462;39.616;8.824;2022-12-07T15:11:17;8.27;;;3.47;;
66607;SDS011;53462;39.616;8.824;2022-12-07T15:13:43;6.35;;;2.80;;
66607;SDS011;53462;39.616;8.824;2022-12-07T15:16:28;5.30;;;2.70;;
66607;SDS011;53462;39.616;8.824;2022-12-07T15:18:54;5.72;;;2.80;;
66607;SDS011;53462;39.616;8.824;2022-12-07T15:21:20;4.80;;;2.35;;
66607;SDS011;53462;39.616;8.824;2022-12-07T15:23:46;27.20;;;3.30;;
66607;SDS011;53462;39.616;8.824;2022-12-07T15:26:12;7.30;;;2.72;;
66607;SDS011;53462;39.616;8.824;2022-12-07T15:28:39;6.78;;;1.80;;
66607;SDS011;53462;39.616;8.824;2022-12-07T15:31:12;3.80;;;2.15;;
66607;SDS011;53462;39.616;8.824;2022-12-07T15:36:06;4.20;;;2.08;;
66607;SDS011;53462;39.616;8.824;2022-12-07T15:38:32;7.72;;;2.30;;
66607;SDS011;53462;39.616;8.824;2022-12-07T15:40:58;4.15;;;2.38;;
66607;SDS011;53462;39.616;8.824;2022-12-07T15:43:23;5.43;;;2.20;;
66607;SDS011;53462;39.616;8.824;2022-12-07T15:46:08;6.05;;;2.45;;
66607;SDS011;53462;39.616;8.824;2022-12-07T15:48:33;7.72;;;2.33;;
66607;SDS011;53462;39.616;8.824;2022-12-07T15:51:03;6.95;;;2.60;;
66607;SDS011;53462;39.616;8.824;2022-12-07T15:53:31;6.80;;;2.47;;
66607;SDS011;53462;39.616;8.824;2022-12-07T15:55:57;6.07;;;2.67;;
66607;SDS011;53462;39.616;8.824;2022-12-07T15:58:22;5.90;;;2.45;;
66607;SDS011;53462;39.616;8.824;2022-12-07T16:00:48;9.50;;;2.60;;
66607;SDS011;53462;39.616;8.824;2022-12-07T16:03:14;6.20;;;3.03;;
66607;SDS011;53462;39.616;8.824;2022-12-07T16:05:40;27.58;;;12.35;;
66607;SDS011;53462;39.616;8.824;2022-12-07T16:08:06;31.65;;;11.05;;
66607;SDS011;53462;39.616;8.824;2022-12-07T16:10:32;20.73;;;9.27;;
66607;SDS011;53462;39.616;8.824;2022-12-07T16:12:59;13.50;;;7.18;;
66607;SDS011;53462;39.616;8.824;2022-12-07T16:15:25;10.07;;;5.95;;
66607;SDS011;53462;39.616;8.824;2022-12-07T16:17:52;8.10;;;4.68;;
66607;SDS011;53462;39.616;8.824;2022-12-07T16:20:18;7.50;;;4.10;;
66607;SDS011;53462;39.616;8.824;2022-12-07T16:22:44;7.22;;;3.50;;
66607;SDS011;53462;39.616;8.824;2022-12-07T16:25:10;6.65;;;4.40;;
66607;SDS011;53462;39.616;8.824;2022-12-07T16:27:36;5.35;;;3.83;;
66607;SDS011;53462;39.616;8.824;2022-12-07T16:30:02;9.13;;;4.03;;
66607;SDS011;53462;39.616;8.824;2022-12-07T16:32:28;8.73;;;3.28;;
66607;SDS011;53462;39.616;8.824;2022-12-07T16:34:54;6.75;;;3.30;;
66607;SDS011;53462;39.616;8.824;2022-12-07T16:37:22;7.88;;;3.38;;
66607;SDS011;53462;39.616;8.824;2022-12-07T16:39:48;8.05;;;3.25;;
66607;SDS011;53462;39.616;8.824;2022-12-07T16:42:14;6.85;;;3.38;;
66607;SDS011;53462;39.616;8.824;2022-12-07T16:44:40;5.25;;;3.05;;
66607;SDS011;53462;39.616;8.824;2022-12-07T16:47:06;7.35;;;3.60;;
66607;SDS011;53462;39.616;8.824;2022-12-07T16:49:32;5.90;;;3.40;;
66607;SDS011;53462;39.616;8.824;2022-12-07T16:51:58;4.68;;;3.63;;
66607;SDS011;53462;39.616;8.824;2022-12-07T16:54:24;7.63;;;3.67;;
66607;SDS011;53462;39.616;8.824;2022-12-07T16:56:50;5.15;;;2.97;;
66607;SDS011;53462;39.616;8.824;2022-12-07T16:59:19;4.47;;;2.70;;
66607;SDS011;53462;39.616;8.824;2022-12-07T17:01:45;5.65;;;3.40;;
66607;SDS011;53462;39.616;8.824;2022-12-07T17:04:10;7.57;;;3.78;;
66607;SDS011;53462;39.616;8.824;2022-12-07T17:06:37;4.90;;;3.13;;
66607;SDS011;53462;39.616;8.824;2022-12-07T17:09:03;5.68;;;3.70;;
66607;SDS011;53462;39.616;8.824;2022-12-07T17:11:34;7.05;;;3.42;;
66607;SDS011;53462;39.616;8.824;2022-12-07T17:14:00;6.70;;;3.85;;
66607;SDS011;53462;39.616;8.824;2022-12-07T17:16:46;6.85;;;4.40;;
66607;SDS011;53462;39.616;8.824;2022-12-07T17:19:12;6.68;;;4.18;;
66607;SDS011;53462;39.616;8.824;2022-12-07T17:21:40;6.93;;;3.75;;
66607;SDS011;53462;39.616;8.824;2022-12-07T17:24:08;7.25;;;4.15;;
66607;SDS011;53462;39.616;8.824;2022-12-07T17:26:35;6.00;;;4.43;;
66607;SDS011;53462;39.616;8.824;2022-12-07T17:29:03;4.35;;;3.20;;
66607;SDS011;53462;39.616;8.824;2022-12-07T17:31:31;11.77;;;4.38;;
66607;SDS011;53462;39.616;8.824;2022-12-07T17:33:58;9.13;;;4.82;;
66607;SDS011;53462;39.616;8.824;2022-12-07T17:36:25;8.20;;;4.60;;
66607;SDS011;53462;39.616;8.824;2022-12-07T17:38:53;9.95;;;6.40;;
66607;SDS011;53462;39.616;8.824;2022-12-07T17:41:23;8.93;;;6.75;;